Time;durP1;ratioP1;P1;durP2;ratioP2;P2;SDS_P1;SDS_P2;PMS_P1;PMS_P2;Temp;Humidity;BMP_temperature;BMP_pressure;BME280_temperature;BME280_humidity;BME280_pressure;Samples;Min_cycle;Max_cycle;Signal;HPM_P1;HPM_P2
2024/03/18 05:01:25;;;;;;;5.13;2.90;;;0.90;97.30;;;;;;5626606;23;20601;-84
2024/03/18 05:03:51;;;;;;;1.43;1.30;;;0.80;97.30;;;;;;4977982;28;20426;-84
2024/03/18 05:06:16;;;;;;;2.03;1.80;;;0.70;97.30;;;;;;4981252;28;20701;-87
2024/03/18 05:08:42;;;;;;;2.13;1.97;;;0.70;97.30;;;;;;4973656;28;20350;-85
2024/03/18 05:11:08;;;;;;;1.30;1.20;;;0.70;97.30;;;;;;4990466;28;20221;-79
2024/03/18 05:13:34;;;;;;;1.47;1.37;;;0.70;97.30;;;;;;4968334;28;20441;-84
2024/03/18 05:16:00;;;;;;;1.07;0.97;;;0.70;97.30;;;;;;4990071;28;20615;-84
2024/03/18 05:18:25;;;;;;;2.40;2.03;;;0.70;97.30;;;;;;4961404;28;20485;-86
2024/03/18 05:20:51;;;;;;;2.60;2.40;;;0.70;97.30;;;;;;4959840;28;20203;-85
2024/03/18 05:23:17;;;;;;;1.73;1.67;;;0.70;97.30;;;;;;4959613;28;20640;-86
2024/03/18 05:25:46;;;;;;;1.67;1.57;;;0.70;97.30;;;;;;4962063;28;20182;-85
2024/03/18 05:28:11;;;;;;;1.30;1.20;;;0.70;97.30;;;;;;4959547;28;20574;-83
2024/03/18 05:30:37;;;;;;;1.10;1.00;;;0.60;97.30;;;;;;4964050;28;20456;-85
2024/03/18 05:33:02;;;;;;;1.50;1.40;;;0.60;97.30;;;;;;4962395;28;20194;-86
2024/03/18 05:35:28;;;;;;;1.90;1.30;;;0.60;97.30;;;;;;4955912;28;20287;-86
2024/03/18 05:37:53;;;;;;;2.60;2.40;;;0.60;97.30;;;;;;4965364;28;20206;-85
2024/03/18 05:40:22;;;;;;;3.73;2.10;;;0.60;97.30;;;;;;4961733;28;20190;-85
2024/03/18 05:42:47;;;;;;;1.10;1.00;;;0.60;97.30;;;;;;4965401;28;20185;-85
2024/03/18 05:45:13;;;;;;;1.30;1.20;;;0.60;97.30;;;;;;4960023;28;20426;-87
2024/03/18 05:47:38;;;;;;;9.27;2.07;;;0.60;97.30;;;;;;4964064;28;20272;-85
2024/03/18 05:50:04;;;;;;;1.53;1.30;;;0.50;97.30;;;;;;4963020;28;20186;-86
2024/03/18 05:52:30;;;;;;;2.60;2.40;;;0.60;97.30;;;;;;4971181;28;20205;-85
2024/03/18 05:54:55;;;;;;;1.93;1.83;;;0.60;97.30;;;;;;4964674;28;20430;-86
2024/03/18 05:57:21;;;;;;;2.90;1.60;;;0.60;97.30;;;;;;4964124;28;20692;-84
2024/03/18 05:59:46;;;;;;;4.43;2.00;;;0.60;97.30;;;;;;4966520;28;20182;-84
2024/03/18 06:02:12;;;;;;;1.47;1.37;;;0.60;97.30;;;;;;4970941;28;20237;-85
2024/03/18 06:04:38;;;;;;;1.53;1.43;;;0.60;97.30;;;;;;4961091;28;20193;-85
2024/03/18 06:07:04;;;;;;;2.33;2.13;;;0.70;97.30;;;;;;4968607;28;20306;-85
2024/03/18 06:09:30;;;;;;;1.60;1.50;;;0.70;97.30;;;;;;4960435;28;20289;-85
2024/03/18 06:11:56;;;;;;;1.30;1.20;;;0.80;97.30;;;;;;4960502;28;20481;-85
2024/03/18 06:14:22;;;;;;;1.10;1.00;;;0.80;97.30;;;;;;4960871;28;20206;-86
2024/03/18 06:16:48;;;;;;;2.73;2.03;;;0.80;97.30;;;;;;4968474;28;20433;-85
2024/03/18 06:19:15;;;;;;;1.20;1.10;;;0.90;97.30;;;;;;4960149;28;20252;-85
2024/03/18 06:21:45;;;;;;;2.10;1.67;;;1.00;97.30;;;;;;4982479;28;20221;-85
2024/03/18 06:24:22;;;;;;;1.50;1.40;;;1.00;97.30;;;;;;4972379;28;20780;-85
2024/03/18 06:26:48;;;;;;;1.40;1.30;;;1.00;97.30;;;;;;4969114;28;20424;-84
2024/03/18 06:29:14;;;;;;;1.20;1.10;;;1.10;97.30;;;;;;4958936;28;20418;-86
2024/03/18 06:31:40;;;;;;;1.20;1.10;;;1.20;97.30;;;;;;4983681;28;20284;-85
2024/03/18 06:34:07;;;;;;;2.33;2.13;;;1.20;97.30;;;;;;4968998;28;20237;-85
2024/03/18 06:36:33;;;;;;;1.30;1.20;;;1.30;97.30;;;;;;4970157;28;20438;-85
2024/03/18 06:38:58;;;;;;;3.83;2.33;;;1.40;97.30;;;;;;4958488;28;20560;-85
2024/03/18 06:41:24;;;;;;;1.10;1.00;;;1.50;97.30;;;;;;4959250;28;20286;-85
2024/03/18 06:43:49;;;;;;;1.93;1.77;;;1.50;97.30;;;;;;4986077;28;20182;-85
2024/03/18 06:46:15;;;;;;;2.67;2.40;;;1.70;97.30;;;;;;4972939;28;20239;-85
2024/03/18 06:48:40;;;;;;;1.40;1.30;;;1.70;97.30;;;;;;4958958;28;20187;-85
2024/03/18 06:51:16;;;;;;;1.20;1.10;;;1.90;97.30;;;;;;4980076;28;20365;-86
2024/03/18 06:53:41;;;;;;;1.00;0.90;;;2.00;97.30;;;;;;4951301;28;20186;-84
2024/03/18 06:56:11;;;;;;;1.13;1.03;;;2.10;97.30;;;;;;4959900;28;20441;-86
2024/03/18 06:58:38;;;;;;;2.80;2.60;;;2.20;97.30;;;;;;4956902;28;20206;-86
2024/03/18 07:01:04;;;;;;;1.83;1.73;;;2.20;97.30;;;;;;4957409;28;20566;-86
2024/03/18 07:03:30;;;;;;;1.90;1.80;;;2.40;97.30;;;;;;4960429;28;20842;-85
2024/03/18 07:05:55;;;;;;;1.07;0.97;;;2.60;97.30;;;;;;4959777;28;20437;-87
2024/03/18 07:08:21;;;;;;;2.27;2.07;;;2.70;97.30;;;;;;4957096;28;20189;-86
2024/03/18 07:10:46;;;;;;;4.23;2.60;;;2.80;97.30;;;;;;4962248;28;20675;-86
2024/03/18 07:13:12;;;;;;;10.80;1.83;;;2.90;97.30;;;;;;4959231;28;20181;-85
2024/03/18 07:15:37;;;;;;;1.73;1.63;;;2.90;97.30;;;;;;4957437;28;20265;-86
2024/03/18 07:18:03;;;;;;;1.47;1.37;;;3.00;97.30;;;;;;4962490;28;20256;-86
2024/03/18 07:20:29;;;;;;;1.67;1.43;;;3.10;97.30;;;;;;4957286;28;20210;-86
2024/03/18 07:22:55;;;;;;;1.67;1.57;;;3.30;97.30;;;;;;4954677;28;20422;-85
2024/03/18 07:25:21;;;;;;;1.20;1.10;;;3.40;97.30;;;;;;4964991;28;20182;-87
2024/03/18 07:27:47;;;;;;;1.40;1.20;;;3.50;97.30;;;;;;4956800;28;20436;-87
2024/03/18 07:30:14;;;;;;;2.77;1.83;;;3.50;97.30;;;;;;4974294;28;20421;-88
2024/03/18 07:32:43;;;;;;;2.13;1.97;;;3.60;97.30;;;;;;4959785;28;20217;-86
2024/03/18 07:35:14;;;;;;;3.37;2.93;;;3.60;97.30;;;;;;4974049;28;20472;-89
2024/03/18 07:37:40;;;;;;;1.20;1.10;;;3.60;97.30;;;;;;4949902;28;20461;-88
2024/03/18 07:40:08;;;;;;;1.30;1.20;;;3.70;97.30;;;;;;4959162;28;20492;-89
2024/03/18 07:42:35;;;;;;;2.07;1.93;;;3.90;97.30;;;;;;4968038;28;20536;-90
2024/03/18 07:45:00;;;;;;;2.40;1.67;;;4.00;97.30;;;;;;4962427;28;20976;-88
2024/03/18 07:47:26;;;;;;;4.17;1.67;;;4.10;97.30;;;;;;4955644;28;20189;-88
2024/03/18 07:49:52;;;;;;;1.10;1.00;;;4.20;97.30;;;;;;4954090;28;20185;-86
2024/03/18 07:52:20;;;;;;;2.00;1.90;;;4.30;97.30;;;;;;4953525;28;20446;-87
2024/03/18 07:54:48;;;;;;;1.20;1.10;;;4.40;97.30;;;;;;4960010;28;20205;-87
2024/03/18 07:57:14;;;;;;;3.47;1.90;;;4.40;97.30;;;;;;4953643;28;20524;-87
2024/03/18 07:59:39;;;;;;;1.10;1.00;;;4.60;97.30;;;;;;4960140;28;20560;-87
2024/03/18 08:02:05;;;;;;;6.23;1.53;;;4.60;97.30;;;;;;4961377;28;20230;-87
2024/03/18 08:04:30;;;;;;;1.10;1.00;;;4.70;97.30;;;;;;4960561;28;20192;-88
2024/03/18 08:06:56;;;;;;;1.30;1.20;;;4.80;97.30;;;;;;4959386;28;20550;-90
2024/03/18 08:09:22;;;;;;;1.50;1.43;;;4.90;97.30;;;;;;4957426;28;20199;-86
2024/03/18 08:11:48;;;;;;;2.70;1.70;;;4.90;97.30;;;;;;4960916;28;20202;-88
2024/03/18 08:14:14;;;;;;;2.07;1.93;;;4.90;97.30;;;;;;4956658;28;20178;-88
2024/03/18 08:16:40;;;;;;;3.13;1.57;;;5.00;97.30;;;;;;4957929;28;20502;-89
2024/03/18 08:19:06;;;;;;;1.27;1.17;;;5.00;97.30;;;;;;4956511;28;20960;-88
2024/03/18 08:21:32;;;;;;;1.47;1.37;;;5.10;97.30;;;;;;4958437;28;20485;-88
2024/03/18 08:24:00;;;;;;;2.13;1.97;;;5.10;97.30;;;;;;4957748;28;20174;-89
2024/03/18 08:26:28;;;;;;;1.50;1.40;;;5.20;97.30;;;;;;4960855;28;20733;-87
2024/03/18 08:28:54;;;;;;;1.23;1.20;;;5.30;97.30;;;;;;4962881;28;20422;-87
2024/03/18 08:31:19;;;;;;;2.30;2.10;;;5.40;97.30;;;;;;4964452;28;20443;-87
2024/03/18 08:33:45;;;;;;;1.20;1.10;;;5.40;97.30;;;;;;4964645;28;20425;-85
2024/03/18 08:36:12;;;;;;;1.50;1.40;;;5.40;97.30;;;;;;4962317;28;20470;-86
2024/03/18 08:38:38;;;;;;;1.67;1.57;;;5.50;97.30;;;;;;4966150;28;20565;-85
2024/03/18 08:41:04;;;;;;;1.17;1.00;;;5.70;97.30;;;;;;4958107;28;20454;-86
2024/03/18 08:43:29;;;;;;;6.53;1.30;;;5.80;97.30;;;;;;4965179;28;20449;-86
2024/03/18 08:45:57;;;;;;;2.83;1.77;;;5.90;97.30;;;;;;4961781;28;20175;-86
2024/03/18 08:48:23;;;;;;;2.10;1.53;;;6.10;97.30;;;;;;4967390;28;20594;-88
2024/03/18 08:50:48;;;;;;;1.20;1.20;;;6.20;97.30;;;;;;4957571;28;20442;-85
2024/03/18 08:53:17;;;;;;;3.00;1.87;;;6.20;97.30;;;;;;4954683;28;20186;-87
2024/03/18 08:55:47;;;;;;;5.83;3.13;;;6.30;97.30;;;;;;4960916;28;20181;-84
2024/03/18 08:58:13;;;;;;;2.07;1.30;;;6.50;97.30;;;;;;4962545;28;21190;-86
2024/03/18 09:00:41;;;;;;;2.50;2.07;;;6.60;97.30;;;;;;4957879;28;20422;-85
2024/03/18 09:03:11;;;;;;;2.90;2.40;;;6.60;97.30;;;;;;4964153;28;20973;-85
2024/03/18 09:05:54;;;;;;;1.83;1.40;;;6.80;97.30;;;;;;4963469;28;20557;-86
2024/03/18 09:08:22;;;;;;;6.53;1.83;;;6.90;97.10;;;;;;4955957;28;20436;-86
2024/03/18 09:10:50;;;;;;;1.93;1.47;;;7.00;97.30;;;;;;4956697;28;20513;-86
2024/03/18 09:13:20;;;;;;;2.07;1.93;;;7.10;96.80;;;;;;4953283;28;20442;-84
2024/03/18 09:15:49;;;;;;;3.30;1.53;;;7.10;96.50;;;;;;4961277;28;20418;-83
2024/03/18 09:18:14;;;;;;;1.57;1.47;;;7.20;96.10;;;;;;4961923;28;20881;-86
2024/03/18 09:20:40;;;;;;;1.53;1.43;;;7.20;95.30;;;;;;4958825;28;20445;-85
2024/03/18 09:23:07;;;;;;;3.23;3.03;;;7.30;95.90;;;;;;4967510;28;20186;-87
2024/03/18 09:25:33;;;;;;;1.60;1.50;;;7.30;95.50;;;;;;4980457;28;20206;-85
2024/03/18 09:27:59;;;;;;;5.03;2.13;;;7.30;95.00;;;;;;4995213;28;20462;-88
2024/03/18 09:30:26;;;;;;;2.17;1.43;;;7.30;95.30;;;;;;4958241;28;21000;-85
2024/03/18 09:32:51;;;;;;;7.60;1.40;;;7.40;94.90;;;;;;4959229;28;20277;-81
2024/03/18 09:35:17;;;;;;;3.70;3.50;;;7.60;94.00;;;;;;4962576;28;20453;-86
2024/03/18 09:37:43;;;;;;;2.70;2.50;;;7.70;94.30;;;;;;4960110;28;20198;-85
2024/03/18 09:40:10;;;;;;;5.73;3.30;;;7.80;93.70;;;;;;4963031;28;20174;-86
2024/03/18 09:42:41;;;;;;;2.27;2.10;;;7.60;92.20;;;;;;4953416;28;20270;-86
2024/03/18 09:45:14;;;;;;;3.13;2.77;;;7.60;92.60;;;;;;4962626;28;20982;-87
2024/03/18 09:47:41;;;;;;;1.57;1.47;;;7.80;93.10;;;;;;4959839;28;20426;-87
2024/03/18 09:50:10;;;;;;;1.70;1.60;;;7.80;92.90;;;;;;4956806;28;20490;-85
2024/03/18 09:52:37;;;;;;;1.60;1.53;;;7.90;92.50;;;;;;4968665;28;20980;-87
2024/03/18 09:55:21;;;;;;;1.43;1.33;;;7.90;92.20;;;;;;4958106;28;20556;-85
2024/03/18 09:57:47;;;;;;;1.10;1.00;;;8.00;92.20;;;;;;4960204;28;20876;-85
2024/03/18 10:00:13;;;;;;;4.53;1.73;;;8.00;92.00;;;;;;4960746;28;20564;-85
2024/03/18 10:02:38;;;;;;;3.90;2.60;;;8.00;92.00;;;;;;4963902;28;21006;-86
2024/03/18 10:05:09;;;;;;;3.80;1.80;;;8.00;91.90;;;;;;4959948;28;20653;-86
2024/03/18 10:07:37;;;;;;;1.20;1.10;;;8.00;92.60;;;;;;4955927;28;20191;-87
2024/03/18 10:10:04;;;;;;;1.83;1.73;;;8.10;92.60;;;;;;4958646;28;20434;-85
2024/03/18 10:12:30;;;;;;;3.23;2.10;;;8.10;92.00;;;;;;4948927;28;20446;-85
2024/03/18 10:14:55;;;;;;;1.43;1.33;;;8.20;92.70;;;;;;4964042;28;20430;-85
2024/03/18 10:17:21;;;;;;;5.30;3.23;;;8.30;92.10;;;;;;4961599;28;20182;-87
2024/03/18 10:19:47;;;;;;;1.87;1.73;;;8.40;92.10;;;;;;4963039;28;20182;-86
2024/03/18 10:22:14;;;;;;;1.03;0.90;;;8.50;91.40;;;;;;4966498;28;20205;-85
2024/03/18 10:24:41;;;;;;;2.03;1.43;;;8.60;91.10;;;;;;4986687;28;20505;-86
2024/03/18 10:27:08;;;;;;;3.23;1.20;;;8.80;90.20;;;;;;4966009;28;20426;-86
2024/03/18 10:29:34;;;;;;;1.57;1.47;;;8.90;91.10;;;;;;4958740;28;20576;-86
2024/03/18 10:32:04;;;;;;;2.40;1.93;;;9.10;90.70;;;;;;4978584;28;20438;-87
2024/03/18 10:34:38;;;;;;;3.20;3.00;;;9.20;88.20;;;;;;4972377;28;20415;-87
2024/03/18 10:37:04;;;;;;;2.00;1.80;;;9.20;89.00;;;;;;4974908;28;20410;-88
2024/03/18 10:39:44;;;;;;;2.40;1.40;;;9.20;90.00;;;;;;4974043;28;20469;-88
2024/03/18 10:42:15;;;;;;;7.30;2.50;;;9.20;86.90;;;;;;4985628;28;20489;-86
2024/03/18 10:44:48;;;;;;;1.67;1.13;;;9.10;86.60;;;;;;4971978;28;20967;-86
2024/03/18 10:47:14;;;;;;;1.10;1.00;;;9.20;87.70;;;;;;4964534;28;20439;-84
2024/03/18 10:49:41;;;;;;;1.07;0.97;;;9.40;87.30;;;;;;4965080;28;20513;-85
2024/03/18 10:52:08;;;;;;;1.47;1.37;;;9.70;88.10;;;;;;4951348;28;20481;-84
2024/03/18 10:54:34;;;;;;;2.70;2.53;;;9.80;86.60;;;;;;4956313;28;20653;-86
2024/03/18 10:57:00;;;;;;;1.07;1.03;;;9.70;87.20;;;;;;4959655;28;20450;-88
2024/03/18 10:59:26;;;;;;;1.20;1.10;;;9.80;87.50;;;;;;4968667;28;20214;-88
2024/03/18 11:01:52;;;;;;;1.23;1.13;;;9.80;86.80;;;;;;4955636;28;20625;-86
2024/03/18 11:04:23;;;;;;;1.10;1.10;;;10.00;85.80;;;;;;4947389;28;20195;-86
2024/03/18 11:06:50;;;;;;;5.23;1.33;;;10.20;85.50;;;;;;4953306;28;20202;-86
2024/03/18 11:09:20;;;;;;;1.57;1.50;;;10.20;86.00;;;;;;4953823;28;20427;-86
2024/03/18 11:11:46;;;;;;;1.40;1.30;;;10.30;84.90;;;;;;4953575;28;20828;-87
2024/03/18 11:14:24;;;;;;;1.87;1.77;;;10.30;83.40;;;;;;4953591;28;20430;-86
2024/03/18 11:16:50;;;;;;;2.60;1.10;;;10.20;84.50;;;;;;4953550;28;20429;-88
2024/03/18 11:19:20;;;;;;;4.30;1.70;;;10.20;84.90;;;;;;4954273;28;20462;-90
2024/03/18 11:21:57;;;;;;;3.37;1.83;;;10.20;84.90;;;;;;4952716;28;20466;-89
2024/03/18 11:24:23;;;;;;;3.00;1.87;;;10.10;84.30;;;;;;4949681;28;20698;-88
2024/03/18 11:27:02;;;;;;;1.27;1.20;;;10.20;83.80;;;;;;4953422;28;20418;-88
2024/03/18 11:29:38;;;;;;;2.40;2.20;;;10.50;82.50;;;;;;4953052;28;20201;-87
2024/03/18 11:32:04;;;;;;;1.40;1.30;;;10.50;84.00;;;;;;4953012;28;20474;-88
2024/03/18 11:34:32;;;;;;;3.47;1.63;;;10.60;83.90;;;;;;4956349;28;20429;-89
2024/03/18 11:36:59;;;;;;;1.10;1.00;;;10.50;81.40;;;;;;4950709;28;20423;-89
2024/03/18 11:39:25;;;;;;;1.47;1.37;;;10.60;79.90;;;;;;4953853;28;20466;-90
2024/03/18 11:42:03;;;;;;;2.07;1.93;;;10.70;80.00;;;;;;4952188;28;20438;-88
2024/03/18 11:44:28;;;;;;;2.60;1.70;;;10.80;80.10;;;;;;4962498;28;20493;-88
2024/03/18 11:47:04;;;;;;;1.50;1.40;;;10.90;80.30;;;;;;4954588;28;20924;-87
2024/03/18 11:49:30;;;;;;;2.27;2.00;;;10.90;81.90;;;;;;4957702;28;20276;-89
2024/03/18 11:51:57;;;;;;;1.73;1.63;;;10.80;82.50;;;;;;4952450;28;20450;-88
2024/03/18 11:54:23;;;;;;;3.77;2.50;;;10.80;81.80;;;;;;4955565;28;20429;-89
2024/03/18 11:56:49;;;;;;;1.63;1.53;;;10.80;82.70;;;;;;4953232;28;20423;-88
2024/03/18 11:59:15;;;;;;;1.60;1.40;;;10.90;82.80;;;;;;4954452;28;20457;-89
2024/03/18 12:01:41;;;;;;;2.73;2.30;;;10.80;82.90;;;;;;4954161;28;20466;-89
2024/03/18 12:04:07;;;;;;;2.40;1.33;;;10.60;83.50;;;;;;4963922;28;20437;-88
2024/03/18 12:06:37;;;;;;;1.77;1.67;;;10.80;85.00;;;;;;4962348;28;20471;-87
2024/03/18 12:09:04;;;;;;;10.20;2.07;;;11.10;85.30;;;;;;4961623;28;20600;-89
2024/03/18 12:11:31;;;;;;;2.40;1.93;;;11.10;84.80;;;;;;4951478;28;20529;-89
2024/03/18 12:13:57;;;;;;;2.50;2.20;;;11.20;85.50;;;;;;4964179;28;20429;-88
2024/03/18 12:16:22;;;;;;;0.90;0.80;;;11.50;84.70;;;;;;4955554;28;20422;-90
2024/03/18 12:18:48;;;;;;;1.50;1.43;;;11.70;84.80;;;;;;4961015;28;20207;-86
2024/03/18 12:21:13;;;;;;;1.60;1.50;;;11.80;85.10;;;;;;4955759;28;20203;-89
2024/03/18 12:29:07;;;;;;;5.83;2.50;;;12.00;84.60;;;;;;4965616;28;20432;-87
2024/03/18 12:31:34;;;;;;;4.80;1.97;;;12.20;85.10;;;;;;4963633;28;20532;-86
2024/03/18 12:34:00;;;;;;;1.37;1.27;;;12.40;83.10;;;;;;4954917;28;20236;-86
2024/03/18 12:36:26;;;;;;;2.03;1.60;;;12.50;82.60;;;;;;4953274;28;20924;-85
2024/03/18 12:38:53;;;;;;;1.47;1.43;;;12.50;83.00;;;;;;4957996;28;20477;-86
2024/03/18 12:41:21;;;;;;;1.77;1.67;;;12.80;83.50;;;;;;4959201;28;20211;-86
2024/03/18 12:43:47;;;;;;;3.47;2.40;;;12.70;82.20;;;;;;4987908;23;20677;-83
2024/03/18 12:46:18;;;;;;;6.93;3.47;;;12.70;83.90;;;;;;4976988;28;21008;-83
2024/03/18 12:48:44;;;;;;;3.73;1.77;;;13.00;83.20;;;;;;4976564;28;20478;-85
2024/03/18 12:51:17;;;;;;;4.03;2.60;;;13.20;81.80;;;;;;4976968;28;20491;-83
2024/03/18 12:53:50;;;;;;;1.73;1.63;;;13.00;81.10;;;;;;4975751;28;20449;-83
2024/03/18 12:56:16;;;;;;;1.83;1.73;;;13.00;81.60;;;;;;4969453;28;20827;-83
2024/03/18 12:58:43;;;;;;;4.40;2.70;;;13.10;83.00;;;;;;4961764;28;20460;-83
2024/03/18 13:01:09;;;;;;;1.17;1.07;;;13.40;81.80;;;;;;4956238;28;20525;-83
2024/03/18 13:03:36;;;;;;;1.53;1.43;;;13.50;81.30;;;;;;4957236;28;20847;-83
2024/03/18 13:06:03;;;;;;;1.40;1.13;;;13.30;80.60;;;;;;4962089;28;20429;-83
2024/03/18 13:08:29;;;;;;;2.30;2.13;;;13.00;81.20;;;;;;4957305;28;20476;-84
2024/03/18 13:10:56;;;;;;;6.10;1.70;;;12.90;80.40;;;;;;4961890;28;20430;-84
2024/03/18 13:13:25;;;;;;;1.37;1.27;;;12.70;80.40;;;;;;4963089;28;20178;-84
2024/03/18 13:15:52;;;;;;;4.80;2.17;;;12.50;80.40;;;;;;4957146;28;20414;-84
2024/03/18 13:18:17;;;;;;;2.83;1.87;;;12.50;80.50;;;;;;4961285;28;20520;-84
2024/03/18 13:20:43;;;;;;;1.50;1.40;;;12.50;80.40;;;;;;4965349;28;20454;-82
2024/03/18 13:23:11;;;;;;;2.50;1.90;;;12.30;79.80;;;;;;4955716;28;20175;-82
2024/03/18 13:25:41;;;;;;;1.67;1.53;;;12.10;79.70;;;;;;4964246;28;20237;-83
2024/03/18 13:28:11;;;;;;;6.03;2.40;;;12.00;79.60;;;;;;4960514;28;20434;-82
2024/03/18 13:30:38;;;;;;;1.53;1.43;;;11.80;80.30;;;;;;4977646;28;20966;-83
2024/03/18 13:33:04;;;;;;;1.00;0.90;;;11.90;80.50;;;;;;4958736;28;20426;-82
2024/03/18 13:35:31;;;;;;;1.97;1.87;;;12.10;80.50;;;;;;4961995;28;20460;-85
2024/03/18 13:37:59;;;;;;;0.90;0.90;;;12.50;79.30;;;;;;4957910;28;20495;-84
2024/03/18 13:40:25;;;;;;;2.90;1.40;;;12.70;79.00;;;;;;4965859;28;20425;-84
2024/03/18 13:42:56;;;;;;;2.23;1.40;;;12.90;78.80;;;;;;4956333;28;21083;-83
2024/03/18 13:45:22;;;;;;;1.83;1.43;;;13.10;78.30;;;;;;4950568;28;20242;-83
2024/03/18 13:47:48;;;;;;;1.10;1.00;;;13.10;76.80;;;;;;4978193;28;20513;-83
2024/03/18 13:50:16;;;;;;;1.63;1.27;;;12.80;77.50;;;;;;4965261;28;20177;-83
2024/03/18 13:52:41;;;;;;;1.10;1.00;;;12.50;77.40;;;;;;4973343;28;20421;-83
2024/03/18 13:55:08;;;;;;;1.10;1.03;;;12.30;77.60;;;;;;4978462;28;20442;-83
2024/03/18 13:57:34;;;;;;;1.10;1.00;;;12.00;78.50;;;;;;4962212;28;20193;-83
2024/03/18 14:00:04;;;;;;;1.33;1.23;;;12.00;78.70;;;;;;4963325;28;20805;-83
2024/03/18 14:02:30;;;;;;;3.17;1.47;;;12.30;79.80;;;;;;4978651;28;20193;-83
2024/03/18 14:04:55;;;;;;;4.43;1.80;;;12.30;78.10;;;;;;4955807;28;20816;-83
2024/03/18 14:07:20;;;;;;;1.67;1.63;;;12.20;79.00;;;;;;4959813;28;20428;-83
2024/03/18 14:09:46;;;;;;;2.30;1.83;;;12.30;78.50;;;;;;4971936;28;20638;-83
2024/03/18 14:12:15;;;;;;;1.93;1.83;;;12.20;78.00;;;;;;4962953;28;20185;-83
2024/03/18 14:14:41;;;;;;;1.33;1.23;;;12.30;77.60;;;;;;4958194;28;20284;-83
2024/03/18 14:17:07;;;;;;;2.10;1.43;;;12.30;77.10;;;;;;4969411;28;21095;-82
2024/03/18 14:19:36;;;;;;;2.77;2.57;;;12.30;76.90;;;;;;4957805;28;20465;-82
2024/03/18 14:22:03;;;;;;;2.63;1.53;;;12.30;77.70;;;;;;4960714;28;20477;-83
2024/03/18 14:24:29;;;;;;;2.17;2.00;;;12.20;77.40;;;;;;4961526;28;20433;-83
2024/03/18 14:26:55;;;;;;;3.93;1.60;;;12.10;78.30;;;;;;4963030;28;20970;-82
2024/03/18 14:29:21;;;;;;;0.90;0.80;;;12.00;78.30;;;;;;4962270;28;20422;-82
2024/03/18 14:31:47;;;;;;;1.30;1.23;;;11.80;78.40;;;;;;4971836;28;20931;-83
2024/03/18 14:34:12;;;;;;;1.47;1.37;;;11.60;78.20;;;;;;4955880;28;20371;-83
2024/03/18 14:36:38;;;;;;;1.00;0.90;;;11.40;78.80;;;;;;4980400;28;20174;-82
2024/03/18 14:39:07;;;;;;;1.10;1.03;;;11.40;80.10;;;;;;4954442;28;20210;-83
2024/03/18 14:41:34;;;;;;;1.83;1.73;;;11.50;80.50;;;;;;4960139;28;20181;-83
2024/03/18 14:43:59;;;;;;;1.67;1.13;;;11.70;79.70;;;;;;4972546;28;20518;-83
2024/03/18 14:46:25;;;;;;;2.23;2.07;;;11.90;80.40;;;;;;4969463;28;20512;-83
2024/03/18 14:48:51;;;;;;;1.70;1.60;;;12.20;79.90;;;;;;4954676;28;20205;-83
2024/03/18 14:51:16;;;;;;;5.50;2.33;;;12.50;79.00;;;;;;4964769;28;20839;-83
2024/03/18 14:53:44;;;;;;;1.80;1.27;;;12.70;78.40;;;;;;4965686;28;20641;-83
2024/03/18 14:56:10;;;;;;;1.20;1.10;;;12.80;78.30;;;;;;4954565;28;20188;-82
2024/03/18 14:58:36;;;;;;;1.63;1.20;;;12.60;77.60;;;;;;4970870;28;20978;-83
2024/03/18 15:01:02;;;;;;;1.50;1.40;;;12.20;77.40;;;;;;4956335;28;20979;-83
2024/03/18 15:03:28;;;;;;;1.73;1.63;;;11.70;78.10;;;;;;4960438;28;20430;-83
2024/03/18 15:05:54;;;;;;;1.43;1.33;;;11.40;78.10;;;;;;4967445;28;20186;-83
2024/03/18 15:08:19;;;;;;;1.30;1.20;;;11.10;78.50;;;;;;4956099;28;20277;-83
2024/03/18 15:10:45;;;;;;;1.37;1.27;;;10.90;79.30;;;;;;4978609;28;21146;-83
2024/03/18 15:13:11;;;;;;;1.47;1.37;;;10.90;80.30;;;;;;4964889;28;20196;-83
2024/03/18 15:15:37;;;;;;;1.00;0.90;;;10.80;80.80;;;;;;4967439;28;20214;-83
2024/03/18 15:18:03;;;;;;;1.10;1.00;;;10.80;81.00;;;;;;4955847;28;20234;-83
2024/03/18 15:20:28;;;;;;;2.63;1.70;;;10.60;80.30;;;;;;4967680;28;20500;-83
2024/03/18 15:22:58;;;;;;;1.13;1.03;;;10.40;80.70;;;;;;4969032;28;20414;-82
2024/03/18 15:28:10;;;;;;;1.47;1.37;;;10.10;81.40;;;;;;4978197;28;20421;-82
2024/03/18 15:30:36;;;;;;;2.53;1.77;;;10.10;82.60;;;;;;4960937;28;20421;-83
2024/03/18 15:33:04;;;;;;;3.87;2.17;;;10.10;82.50;;;;;;4957271;28;20418;-83
2024/03/18 15:35:30;;;;;;;1.40;1.30;;;10.10;82.50;;;;;;4985495;28;20659;-83
2024/03/18 15:37:55;;;;;;;1.60;1.50;;;10.10;81.80;;;;;;4980087;28;20983;-82
2024/03/18 15:40:21;;;;;;;1.67;1.57;;;10.10;81.70;;;;;;4962121;28;20186;-83
2024/03/18 15:42:47;;;;;;;1.30;1.20;;;10.10;81.50;;;;;;4955250;28;20191;-83
2024/03/18 15:45:16;;;;;;;1.53;1.43;;;10.20;81.50;;;;;;4954034;28;20649;-83
2024/03/18 15:47:44;;;;;;;2.90;1.63;;;10.10;81.60;;;;;;4955486;28;20454;-83
2024/03/18 15:50:10;;;;;;;2.87;1.30;;;10.20;81.70;;;;;;4991479;28;20416;-83
2024/03/18 15:52:36;;;;;;;1.30;1.20;;;10.20;81.80;;;;;;4994545;28;20413;-83
2024/03/18 15:55:06;;;;;;;1.33;1.10;;;10.20;80.90;;;;;;4968496;28;20477;-83
2024/03/18 15:57:32;;;;;;;1.30;1.03;;;10.20;81.10;;;;;;4989653;28;20441;-83
2024/03/18 15:59:58;;;;;;;1.07;0.97;;;10.20;81.10;;;;;;4960795;28;20441;-83
2024/03/18 16:02:24;;;;;;;1.57;1.47;;;10.20;81.10;;;;;;4967675;28;20285;-83
2024/03/18 16:04:53;;;;;;;1.10;1.00;;;10.00;81.10;;;;;;4986950;28;21042;-82
2024/03/18 16:07:19;;;;;;;1.87;1.67;;;9.80;81.60;;;;;;4964261;28;20417;-83
2024/03/18 16:09:45;;;;;;;1.93;1.70;;;9.60;82.10;;;;;;4982534;28;21119;-83
2024/03/18 16:12:15;;;;;;;1.57;1.27;;;9.60;82.70;;;;;;4969850;28;20650;-83
2024/03/18 16:14:44;;;;;;;1.10;1.00;;;9.50;83.10;;;;;;4977394;28;20437;-83
2024/03/18 16:17:13;;;;;;;1.00;0.90;;;9.50;83.90;;;;;;4970956;28;20422;-82
2024/03/18 16:19:39;;;;;;;1.40;1.30;;;9.40;83.30;;;;;;4968884;28;20472;-82
2024/03/18 16:22:05;;;;;;;4.43;2.50;;;9.40;83.40;;;;;;4955855;28;20650;-82
2024/03/18 16:24:30;;;;;;;1.40;1.30;;;9.30;83.80;;;;;;4954757;28;20198;-82
2024/03/18 16:26:56;;;;;;;5.00;2.00;;;9.20;83.80;;;;;;4986760;28;20232;-83
2024/03/18 16:29:21;;;;;;;6.67;1.70;;;9.20;83.80;;;;;;4962347;28;20626;-83
2024/03/18 16:31:48;;;;;;;2.03;1.80;;;9.10;83.60;;;;;;4955442;28;20198;-83
2024/03/18 16:34:13;;;;;;;1.77;1.67;;;9.00;83.60;;;;;;4954327;28;20213;-82
2024/03/18 16:36:40;;;;;;;5.43;1.53;;;9.00;83.70;;;;;;4968800;28;20520;-83
2024/03/18 16:39:05;;;;;;;1.17;1.07;;;8.90;83.80;;;;;;4963681;28;20213;-83
2024/03/18 16:41:31;;;;;;;1.67;1.43;;;8.80;84.00;;;;;;4962617;28;20787;-83
2024/03/18 16:43:56;;;;;;;1.00;0.90;;;8.80;84.10;;;;;;4961571;28;20226;-82
2024/03/18 16:46:22;;;;;;;3.97;2.60;;;8.70;83.90;;;;;;4984464;28;20269;-85
2024/03/18 16:48:48;;;;;;;4.13;2.53;;;8.70;84.50;;;;;;4966596;28;20664;-83
2024/03/18 16:51:14;;;;;;;3.90;1.30;;;8.60;84.60;;;;;;4961535;28;20205;-83
2024/03/18 16:53:39;;;;;;;1.60;1.50;;;8.50;84.40;;;;;;4963635;28;20429;-83
2024/03/18 16:56:05;;;;;;;1.73;1.20;;;8.50;84.90;;;;;;4973981;28;20696;-85
2024/03/18 16:58:30;;;;;;;1.20;1.10;;;8.40;85.40;;;;;;4974459;28;20264;-82
2024/03/18 17:00:56;;;;;;;2.07;1.37;;;8.30;85.50;;;;;;4962209;28;20252;-83
2024/03/18 17:03:22;;;;;;;1.60;1.50;;;8.20;85.70;;;;;;4957893;28;20183;-83
2024/03/18 17:05:48;;;;;;;1.00;0.90;;;8.20;85.80;;;;;;4973779;28;20268;-83
2024/03/18 17:08:15;;;;;;;4.10;2.33;;;8.10;85.90;;;;;;4967797;28;20202;-83
2024/03/18 17:10:41;;;;;;;1.77;1.67;;;8.10;85.90;;;;;;4969738;28;20187;-83
2024/03/18 17:13:06;;;;;;;3.33;2.27;;;8.00;86.00;;;;;;4958240;28;20436;-83
2024/03/18 17:15:32;;;;;;;0.97;0.87;;;8.00;86.70;;;;;;4967176;28;20438;-84
2024/03/18 17:17:58;;;;;;;8.10;1.90;;;7.90;86.60;;;;;;4956999;28;20238;-81
2024/03/18 17:20:24;;;;;;;7.20;3.53;;;7.90;87.30;;;;;;4958283;28;20422;-84
2024/03/18 17:22:51;;;;;;;1.67;1.57;;;7.80;87.60;;;;;;4957331;28;20278;-82
2024/03/18 17:25:16;;;;;;;3.17;1.47;;;7.70;87.40;;;;;;4958844;28;20202;-81
2024/03/18 17:27:42;;;;;;;2.97;1.70;;;7.70;88.00;;;;;;4960858;28;20444;-83
2024/03/18 17:30:08;;;;;;;1.53;1.43;;;7.60;88.20;;;;;;4960279;28;20191;-81
2024/03/18 17:32:34;;;;;;;1.30;1.20;;;7.50;88.70;;;;;;4958963;28;20210;-81
2024/03/18 17:34:59;;;;;;;1.60;1.50;;;7.50;89.10;;;;;;4959389;28;20453;-82
2024/03/18 17:37:25;;;;;;;1.30;1.20;;;7.40;89.10;;;;;;4958964;28;20217;-81
2024/03/18 17:39:53;;;;;;;1.70;1.60;;;7.30;89.30;;;;;;4958681;28;20182;-81
2024/03/18 17:42:19;;;;;;;4.03;1.20;;;7.20;89.50;;;;;;4958823;28;20174;-84
2024/03/18 17:44:44;;;;;;;4.00;1.43;;;7.10;89.70;;;;;;4975940;28;20473;-81
2024/03/18 17:47:10;;;;;;;1.37;1.27;;;7.10;89.90;;;;;;4976196;28;20217;-82
2024/03/18 17:49:36;;;;;;;1.13;1.03;;;7.00;89.70;;;;;;4959112;28;20273;-81
2024/03/18 17:52:01;;;;;;;1.00;0.90;;;6.90;89.70;;;;;;4959987;28;20193;-82
2024/03/18 17:54:27;;;;;;;1.50;1.40;;;6.80;89.80;;;;;;4958884;28;20456;-82
2024/03/18 17:56:53;;;;;;;3.43;1.97;;;6.80;89.80;;;;;;4958222;28;20186;-82
2024/03/18 17:59:19;;;;;;;2.30;1.60;;;6.70;90.00;;;;;;4958539;28;20235;-83